sensor_id;sensor_type;location;lat;lon;timestamp;P1;durP1;ratioP1;P2;durP2;ratioP2
18510;SDS011;9384;48.044;11.616;2022-12-18T00:01:31;56.30;;;20.43;;
18510;SDS011;9384;48.044;11.616;2022-12-18T00:03:59;53.43;;;20.03;;
18510;SDS011;9384;48.044;11.616;2022-12-18T00:06:28;47.23;;;19.00;;
18510;SDS011;9384;48.044;11.616;2022-12-18T00:08:56;53.70;;;19.97;;
18510;SDS011;9384;48.044;11.616;2022-12-18T00:11:24;48.10;;;18.30;;
18510;SDS011;9384;48.044;11.616;2022-12-18T00:13:53;50.40;;;18.37;;
18510;SDS011;9384;48.044;11.616;2022-12-18T00:16:23;44.60;;;18.73;;
18510;SDS011;9384;48.044;11.616;2022-12-18T00:18:51;48.43;;;19.17;;
18510;SDS011;9384;48.044;11.616;2022-12-18T00:21:20;48.90;;;19.63;;
18510;SDS011;9384;48.044;11.616;2022-12-18T00:23:48;50.33;;;19.77;;
18510;SDS011;9384;48.044;11.616;2022-12-18T00:26:16;47.80;;;19.00;;
18510;SDS011;9384;48.044;11.616;2022-12-18T00:28:44;45.20;;;18.00;;
18510;SDS011;9384;48.044;11.616;2022-12-18T00:31:12;49.57;;;18.43;;
18510;SDS011;9384;48.044;11.616;2022-12-18T00:33:42;50.13;;;17.87;;
18510;SDS011;9384;48.044;11.616;2022-12-18T00:36:10;50.40;;;18.37;;
18510;SDS011;9384;48.044;11.616;2022-12-18T00:38:38;51.17;;;18.50;;
18510;SDS011;9384;48.044;11.616;2022-12-18T00:41:06;50.40;;;18.27;;
18510;SDS011;9384;48.044;11.616;2022-12-18T00:43:33;46.67;;;19.53;;
18510;SDS011;9384;48.044;11.616;2022-12-18T00:45:59;48.93;;;19.40;;
18510;SDS011;9384;48.044;11.616;2022-12-18T00:48:26;52.90;;;19.90;;
18510;SDS011;9384;48.044;11.616;2022-12-18T00:50:54;54.47;;;19.90;;
18510;SDS011;9384;48.044;11.616;2022-12-18T00:53:21;48.43;;;17.97;;
18510;SDS011;9384;48.044;11.616;2022-12-18T00:55:48;57.90;;;18.50;;
18510;SDS011;9384;48.044;11.616;2022-12-18T00:58:15;54.83;;;18.53;;
18510;SDS011;9384;48.044;11.616;2022-12-18T01:00:42;44.70;;;18.17;;
18510;SDS011;9384;48.044;11.616;2022-12-18T01:03:09;45.67;;;16.97;;
18510;SDS011;9384;48.044;11.616;2022-12-18T01:05:38;47.00;;;18.40;;
18510;SDS011;9384;48.044;11.616;2022-12-18T01:08:07;48.33;;;18.20;;
18510;SDS011;9384;48.044;11.616;2022-12-18T01:10:34;47.60;;;18.57;;
18510;SDS011;9384;48.044;11.616;2022-12-18T01:13:01;54.00;;;19.57;;
18510;SDS011;9384;48.044;11.616;2022-12-18T01:15:28;49.33;;;19.00;;
18510;SDS011;9384;48.044;11.616;2022-12-18T01:17:54;43.77;;;17.00;;
18510;SDS011;9384;48.044;11.616;2022-12-18T01:20:21;48.40;;;18.13;;
18510;SDS011;9384;48.044;11.616;2022-12-18T01:22:48;51.70;;;19.13;;
18510;SDS011;9384;48.044;11.616;2022-12-18T01:25:17;47.70;;;17.40;;
18510;SDS011;9384;48.044;11.616;2022-12-18T01:27:43;48.87;;;19.17;;
18510;SDS011;9384;48.044;11.616;2022-12-18T01:30:11;51.93;;;20.10;;
18510;SDS011;9384;48.044;11.616;2022-12-18T01:32:38;53.37;;;19.03;;
18510;SDS011;9384;48.044;11.616;2022-12-18T01:35:05;55.00;;;19.90;;
18510;SDS011;9384;48.044;11.616;2022-12-18T01:37:33;56.23;;;19.67;;
18510;SDS011;9384;48.044;11.616;2022-12-18T01:39:59;54.37;;;19.87;;
18510;SDS011;9384;48.044;11.616;2022-12-18T01:42:28;49.87;;;17.70;;
18510;SDS011;9384;48.044;11.616;2022-12-18T01:44:59;41.90;;;17.90;;
18510;SDS011;9384;48.044;11.616;2022-12-18T01:47:30;47.87;;;18.93;;
18510;SDS011;9384;48.044;11.616;2022-12-18T01:50:02;51.23;;;18.83;;
18510;SDS011;9384;48.044;11.616;2022-12-18T01:52:32;51.40;;;18.80;;
18510;SDS011;9384;48.044;11.616;2022-12-18T01:54:59;50.80;;;18.70;;
18510;SDS011;9384;48.044;11.616;2022-12-18T01:57:29;56.10;;;19.33;;
18510;SDS011;9384;48.044;11.616;2022-12-18T01:59:57;53.13;;;20.60;;
18510;SDS011;9384;48.044;11.616;2022-12-18T02:02:28;48.83;;;18.87;;
18510;SDS011;9384;48.044;11.616;2022-12-18T02:04:56;51.60;;;18.13;;
18510;SDS011;9384;48.044;11.616;2022-12-18T02:07:24;53.97;;;19.70;;
18510;SDS011;9384;48.044;11.616;2022-12-18T02:10:02;50.60;;;18.17;;
18510;SDS011;9384;48.044;11.616;2022-12-18T02:12:38;58.80;;;20.70;;
18510;SDS011;9384;48.044;11.616;2022-12-18T02:15:13;45.90;;;17.70;;
18510;SDS011;9384;48.044;11.616;2022-12-18T02:17:43;49.37;;;20.17;;
18510;SDS011;9384;48.044;11.616;2022-12-18T02:20:16;52.37;;;20.23;;
18510;SDS011;9384;48.044;11.616;2022-12-18T02:22:55;56.60;;;20.47;;
18510;SDS011;9384;48.044;11.616;2022-12-18T02:25:37;50.47;;;19.33;;
18510;SDS011;9384;48.044;11.616;2022-12-18T02:28:13;55.00;;;20.10;;
18510;SDS011;9384;48.044;11.616;2022-12-18T02:30:44;57.00;;;21.53;;
18510;SDS011;9384;48.044;11.616;2022-12-18T02:33:13;55.10;;;18.90;;
18510;SDS011;9384;48.044;11.616;2022-12-18T02:35:41;56.27;;;19.87;;
18510;SDS011;9384;48.044;11.616;2022-12-18T02:38:10;58.43;;;21.10;;
18510;SDS011;9384;48.044;11.616;2022-12-18T02:40:39;53.63;;;21.03;;
18510;SDS011;9384;48.044;11.616;2022-12-18T02:43:08;54.97;;;20.87;;
18510;SDS011;9384;48.044;11.616;2022-12-18T02:45:45;54.87;;;21.03;;
18510;SDS011;9384;48.044;11.616;2022-12-18T02:48:13;54.53;;;20.90;;
18510;SDS011;9384;48.044;11.616;2022-12-18T02:50:41;53.10;;;18.23;;
18510;SDS011;9384;48.044;11.616;2022-12-18T02:53:14;52.23;;;19.53;;
18510;SDS011;9384;48.044;11.616;2022-12-18T02:55:51;55.73;;;20.40;;
18510;SDS011;9384;48.044;11.616;2022-12-18T02:58:26;52.87;;;18.87;;
18510;SDS011;9384;48.044;11.616;2022-12-18T03:00:59;51.87;;;19.27;;
18510;SDS011;9384;48.044;11.616;2022-12-18T03:03:30;58.77;;;21.03;;
18510;SDS011;9384;48.044;11.616;2022-12-18T03:06:01;53.60;;;19.27;;
18510;SDS011;9384;48.044;11.616;2022-12-18T03:08:33;55.63;;;20.70;;
18510;SDS011;9384;48.044;11.616;2022-12-18T03:11:04;58.97;;;21.80;;
18510;SDS011;9384;48.044;11.616;2022-12-18T03:13:34;57.13;;;19.80;;
18510;SDS011;9384;48.044;11.616;2022-12-18T03:16:06;51.83;;;20.67;;
18510;SDS011;9384;48.044;11.616;2022-12-18T03:18:37;53.50;;;19.27;;
18510;SDS011;9384;48.044;11.616;2022-12-18T03:21:08;56.47;;;20.23;;
18510;SDS011;9384;48.044;11.616;2022-12-18T03:23:39;56.37;;;20.20;;
18510;SDS011;9384;48.044;11.616;2022-12-18T03:26:11;55.57;;;19.60;;
18510;SDS011;9384;48.044;11.616;2022-12-18T03:28:42;50.70;;;20.30;;
18510;SDS011;9384;48.044;11.616;2022-12-18T03:31:14;53.13;;;19.63;;
18510;SDS011;9384;48.044;11.616;2022-12-18T03:33:43;55.13;;;19.73;;
18510;SDS011;9384;48.044;11.616;2022-12-18T03:36:13;53.43;;;19.77;;
18510;SDS011;9384;48.044;11.616;2022-12-18T03:38:40;59.57;;;21.27;;
18510;SDS011;9384;48.044;11.616;2022-12-18T03:41:10;56.60;;;19.47;;
18510;SDS011;9384;48.044;11.616;2022-12-18T03:43:44;49.37;;;18.60;;
18510;SDS011;9384;48.044;11.616;2022-12-18T03:46:20;50.40;;;19.23;;
18510;SDS011;9384;48.044;11.616;2022-12-18T03:48:56;51.93;;;19.83;;
18510;SDS011;9384;48.044;11.616;2022-12-18T03:51:28;51.57;;;20.00;;
18510;SDS011;9384;48.044;11.616;2022-12-18T03:54:03;55.00;;;20.53;;
18510;SDS011;9384;48.044;11.616;2022-12-18T03:56:33;55.47;;;20.83;;
18510;SDS011;9384;48.044;11.616;2022-12-18T03:59:05;51.00;;;20.03;;
18510;SDS011;9384;48.044;11.616;2022-12-18T04:01:35;50.17;;;19.30;;
18510;SDS011;9384;48.044;11.616;2022-12-18T04:04:06;56.30;;;20.17;;
18510;SDS011;9384;48.044;11.616;2022-12-18T04:06:34;53.80;;;20.13;;
18510;SDS011;9384;48.044;11.616;2022-12-18T04:09:02;49.50;;;19.53;;
18510;SDS011;9384;48.044;11.616;2022-12-18T04:11:30;50.47;;;18.77;;
18510;SDS011;9384;48.044;11.616;2022-12-18T04:13:57;57.70;;;21.93;;
18510;SDS011;9384;48.044;11.616;2022-12-18T04:16:24;54.97;;;19.73;;
18510;SDS011;9384;48.044;11.616;2022-12-18T04:18:53;54.80;;;19.40;;
18510;SDS011;9384;48.044;11.616;2022-12-18T04:21:20;46.97;;;19.60;;
18510;SDS011;9384;48.044;11.616;2022-12-18T04:23:47;65.67;;;21.53;;
18510;SDS011;9384;48.044;11.616;2022-12-18T04:26:14;57.50;;;20.90;;
18510;SDS011;9384;48.044;11.616;2022-12-18T04:28:41;57.53;;;20.00;;
18510;SDS011;9384;48.044;11.616;2022-12-18T04:31:08;53.17;;;19.50;;
18510;SDS011;9384;48.044;11.616;2022-12-18T04:33:35;50.00;;;19.27;;
18510;SDS011;9384;48.044;11.616;2022-12-18T04:36:03;55.87;;;19.90;;
18510;SDS011;9384;48.044;11.616;2022-12-18T04:38:30;55.23;;;20.33;;
18510;SDS011;9384;48.044;11.616;2022-12-18T04:40:57;54.40;;;20.13;;
18510;SDS011;9384;48.044;11.616;2022-12-18T04:43:24;48.80;;;19.77;;
18510;SDS011;9384;48.044;11.616;2022-12-18T04:45:51;53.03;;;18.93;;
18510;SDS011;9384;48.044;11.616;2022-12-18T04:48:18;50.07;;;18.87;;
18510;SDS011;9384;48.044;11.616;2022-12-18T04:50:46;52.10;;;20.73;;
18510;SDS011;9384;48.044;11.616;2022-12-18T04:53:14;48.80;;;19.90;;
18510;SDS011;9384;48.044;11.616;2022-12-18T04:55:41;51.60;;;20.23;;
18510;SDS011;9384;48.044;11.616;2022-12-18T04:58:08;52.93;;;20.13;;
18510;SDS011;9384;48.044;11.616;2022-12-18T05:00:34;57.73;;;19.33;;
18510;SDS011;9384;48.044;11.616;2022-12-18T05:03:01;53.30;;;20.33;;
18510;SDS011;9384;48.044;11.616;2022-12-18T05:05:28;51.63;;;18.80;;
18510;SDS011;9384;48.044;11.616;2022-12-18T05:07:55;52.10;;;19.13;;
18510;SDS011;9384;48.044;11.616;2022-12-18T05:10:23;59.17;;;19.60;;
18510;SDS011;9384;48.044;11.616;2022-12-18T05:12:50;55.07;;;18.67;;
18510;SDS011;9384;48.044;11.616;2022-12-18T05:15:26;47.80;;;17.47;;
18510;SDS011;9384;48.044;11.616;2022-12-18T05:17:54;44.60;;;17.33;;
18510;SDS011;9384;48.044;11.616;2022-12-18T05:20:22;55.13;;;18.63;;
18510;SDS011;9384;48.044;11.616;2022-12-18T05:22:49;46.20;;;17.73;;
18510;SDS011;9384;48.044;11.616;2022-12-18T05:25:16;47.70;;;18.67;;
18510;SDS011;9384;48.044;11.616;2022-12-18T05:27:45;48.50;;;19.70;;
18510;SDS011;9384;48.044;11.616;2022-12-18T05:30:12;52.40;;;19.83;;
18510;SDS011;9384;48.044;11.616;2022-12-18T05:32:40;53.97;;;18.20;;
18510;SDS011;9384;48.044;11.616;2022-12-18T05:35:07;52.73;;;18.80;;
18510;SDS011;9384;48.044;11.616;2022-12-18T05:37:36;47.37;;;18.37;;
18510;SDS011;9384;48.044;11.616;2022-12-18T05:40:03;48.37;;;18.00;;
18510;SDS011;9384;48.044;11.616;2022-12-18T05:42:30;51.33;;;19.17;;
18510;SDS011;9384;48.044;11.616;2022-12-18T05:44:59;45.40;;;16.87;;
18510;SDS011;9384;48.044;11.616;2022-12-18T05:47:26;46.90;;;18.33;;
18510;SDS011;9384;48.044;11.616;2022-12-18T05:49:53;48.80;;;17.83;;
18510;SDS011;9384;48.044;11.616;2022-12-18T05:52:20;41.00;;;16.23;;
18510;SDS011;9384;48.044;11.616;2022-12-18T05:54:47;48.73;;;17.40;;
18510;SDS011;9384;48.044;11.616;2022-12-18T05:57:14;55.10;;;18.70;;
18510;SDS011;9384;48.044;11.616;2022-12-18T05:59:41;46.90;;;18.70;;
18510;SDS011;9384;48.044;11.616;2022-12-18T06:02:09;51.73;;;19.57;;
18510;SDS011;9384;48.044;11.616;2022-12-18T06:04:36;42.07;;;17.90;;
18510;SDS011;9384;48.044;11.616;2022-12-18T06:07:03;46.53;;;17.70;;
18510;SDS011;9384;48.044;11.616;2022-12-18T06:09:30;45.93;;;18.43;;
18510;SDS011;9384;48.044;11.616;2022-12-18T06:11:57;48.27;;;19.33;;
18510;SDS011;9384;48.044;11.616;2022-12-18T06:14:24;42.27;;;17.43;;
18510;SDS011;9384;48.044;11.616;2022-12-18T06:16:50;48.23;;;17.33;;
18510;SDS011;9384;48.044;11.616;2022-12-18T06:19:19;47.27;;;17.50;;
18510;SDS011;9384;48.044;11.616;2022-12-18T06:21:46;49.80;;;17.50;;
18510;SDS011;9384;48.044;11.616;2022-12-18T06:24:14;46.03;;;16.63;;
18510;SDS011;9384;48.044;11.616;2022-12-18T06:26:41;45.60;;;18.07;;
18510;SDS011;9384;48.044;11.616;2022-12-18T06:29:08;50.80;;;17.30;;
18510;SDS011;9384;48.044;11.616;2022-12-18T06:31:34;48.40;;;17.80;;
18510;SDS011;9384;48.044;11.616;2022-12-18T06:34:01;44.17;;;17.40;;
18510;SDS011;9384;48.044;11.616;2022-12-18T06:36:30;45.67;;;18.00;;
18510;SDS011;9384;48.044;11.616;2022-12-18T06:38:57;39.90;;;16.30;;
18510;SDS011;9384;48.044;11.616;2022-12-18T06:41:24;47.33;;;17.43;;
18510;SDS011;9384;48.044;11.616;2022-12-18T06:43:51;45.80;;;17.80;;
18510;SDS011;9384;48.044;11.616;2022-12-18T06:46:18;42.83;;;18.13;;
18510;SDS011;9384;48.044;11.616;2022-12-18T06:48:46;51.37;;;16.97;;
18510;SDS011;9384;48.044;11.616;2022-12-18T06:51:15;45.40;;;17.57;;
18510;SDS011;9384;48.044;11.616;2022-12-18T06:53:44;45.03;;;17.83;;
18510;SDS011;9384;48.044;11.616;2022-12-18T06:56:11;46.30;;;17.50;;
18510;SDS011;9384;48.044;11.616;2022-12-18T06:58:38;41.70;;;17.07;;
18510;SDS011;9384;48.044;11.616;2022-12-18T07:01:06;45.50;;;16.10;;
18510;SDS011;9384;48.044;11.616;2022-12-18T07:03:34;38.27;;;15.13;;
18510;SDS011;9384;48.044;11.616;2022-12-18T07:06:01;41.27;;;16.70;;
18510;SDS011;9384;48.044;11.616;2022-12-18T07:08:28;41.20;;;16.77;;
18510;SDS011;9384;48.044;11.616;2022-12-18T07:10:57;47.40;;;17.63;;
18510;SDS011;9384;48.044;11.616;2022-12-18T07:13:25;48.13;;;17.73;;
18510;SDS011;9384;48.044;11.616;2022-12-18T07:15:51;47.50;;;17.23;;
18510;SDS011;9384;48.044;11.616;2022-12-18T07:18:18;40.87;;;17.13;;
18510;SDS011;9384;48.044;11.616;2022-12-18T07:20:45;49.10;;;17.83;;
18510;SDS011;9384;48.044;11.616;2022-12-18T07:23:12;44.77;;;16.27;;
18510;SDS011;9384;48.044;11.616;2022-12-18T07:25:39;43.17;;;16.23;;
18510;SDS011;9384;48.044;11.616;2022-12-18T07:28:08;39.50;;;15.73;;
18510;SDS011;9384;48.044;11.616;2022-12-18T07:30:36;46.07;;;17.53;;
18510;SDS011;9384;48.044;11.616;2022-12-18T07:33:03;45.47;;;17.40;;
18510;SDS011;9384;48.044;11.616;2022-12-18T07:35:30;44.53;;;16.27;;
18510;SDS011;9384;48.044;11.616;2022-12-18T07:38:01;45.90;;;17.37;;
18510;SDS011;9384;48.044;11.616;2022-12-18T07:40:28;39.97;;;16.83;;
18510;SDS011;9384;48.044;11.616;2022-12-18T07:42:55;45.33;;;16.70;;
18510;SDS011;9384;48.044;11.616;2022-12-18T07:45:23;43.67;;;16.37;;
18510;SDS011;9384;48.044;11.616;2022-12-18T07:47:50;46.63;;;17.07;;
18510;SDS011;9384;48.044;11.616;2022-12-18T07:50:16;47.97;;;16.60;;
18510;SDS011;9384;48.044;11.616;2022-12-18T07:52:43;42.87;;;16.83;;
18510;SDS011;9384;48.044;11.616;2022-12-18T07:55:10;47.67;;;17.10;;
18510;SDS011;9384;48.044;11.616;2022-12-18T07:57:37;42.30;;;17.00;;
18510;SDS011;9384;48.044;11.616;2022-12-18T08:00:04;43.87;;;17.37;;
18510;SDS011;9384;48.044;11.616;2022-12-18T08:02:33;47.23;;;17.00;;
18510;SDS011;9384;48.044;11.616;2022-12-18T08:05:00;41.50;;;16.43;;
18510;SDS011;9384;48.044;11.616;2022-12-18T08:07:27;41.73;;;15.47;;
18510;SDS011;9384;48.044;11.616;2022-12-18T08:09:54;41.70;;;16.87;;
18510;SDS011;9384;48.044;11.616;2022-12-18T08:12:20;44.73;;;17.07;;
18510;SDS011;9384;48.044;11.616;2022-12-18T08:14:47;41.97;;;16.13;;
18510;SDS011;9384;48.044;11.616;2022-12-18T08:17:14;45.07;;;16.33;;
18510;SDS011;9384;48.044;11.616;2022-12-18T08:19:42;38.80;;;16.27;;
18510;SDS011;9384;48.044;11.616;2022-12-18T08:22:09;40.70;;;16.10;;
18510;SDS011;9384;48.044;11.616;2022-12-18T08:24:36;37.77;;;15.60;;
18510;SDS011;9384;48.044;11.616;2022-12-18T08:27:03;42.40;;;15.77;;
18510;SDS011;9384;48.044;11.616;2022-12-18T08:29:29;40.33;;;15.87;;
18510;SDS011;9384;48.044;11.616;2022-12-18T08:31:56;37.77;;;14.80;;
18510;SDS011;9384;48.044;11.616;2022-12-18T08:34:23;42.60;;;16.13;;
18510;SDS011;9384;48.044;11.616;2022-12-18T08:36:52;36.63;;;14.97;;
18510;SDS011;9384;48.044;11.616;2022-12-18T08:39:18;40.87;;;17.00;;
18510;SDS011;9384;48.044;11.616;2022-12-18T08:41:45;39.07;;;15.77;;
18510;SDS011;9384;48.044;11.616;2022-12-18T08:44:32;40.30;;;15.63;;
18510;SDS011;9384;48.044;11.616;2022-12-18T08:47:07;35.70;;;15.00;;
18510;SDS011;9384;48.044;11.616;2022-12-18T08:49:34;32.80;;;14.67;;
18510;SDS011;9384;48.044;11.616;2022-12-18T08:52:03;41.30;;;16.23;;
18510;SDS011;9384;48.044;11.616;2022-12-18T08:54:30;38.77;;;14.67;;
18510;SDS011;9384;48.044;11.616;2022-12-18T08:56:56;33.07;;;14.27;;
18510;SDS011;9384;48.044;11.616;2022-12-18T08:59:23;31.73;;;14.17;;
18510;SDS011;9384;48.044;11.616;2022-12-18T09:01:52;36.37;;;14.30;;
18510;SDS011;9384;48.044;11.616;2022-12-18T09:04:20;35.03;;;13.63;;
18510;SDS011;9384;48.044;11.616;2022-12-18T09:06:47;41.57;;;14.53;;
18510;SDS011;9384;48.044;11.616;2022-12-18T09:09:15;33.63;;;14.70;;
18510;SDS011;9384;48.044;11.616;2022-12-18T09:11:42;34.40;;;14.37;;
18510;SDS011;9384;48.044;11.616;2022-12-18T09:14:09;36.53;;;13.80;;
18510;SDS011;9384;48.044;11.616;2022-12-18T09:16:36;34.33;;;14.37;;
18510;SDS011;9384;48.044;11.616;2022-12-18T09:19:03;34.87;;;15.03;;
18510;SDS011;9384;48.044;11.616;2022-12-18T09:21:32;35.27;;;14.43;;
18510;SDS011;9384;48.044;11.616;2022-12-18T09:23:59;38.73;;;14.87;;
18510;SDS011;9384;48.044;11.616;2022-12-18T09:26:28;37.07;;;14.97;;
18510;SDS011;9384;48.044;11.616;2022-12-18T09:28:55;39.33;;;15.20;;
18510;SDS011;9384;48.044;11.616;2022-12-18T09:31:23;37.10;;;14.73;;
18510;SDS011;9384;48.044;11.616;2022-12-18T09:33:50;39.40;;;15.83;;
18510;SDS011;9384;48.044;11.616;2022-12-18T09:36:17;37.50;;;15.00;;
18510;SDS011;9384;48.044;11.616;2022-12-18T09:38:45;33.50;;;14.13;;
18510;SDS011;9384;48.044;11.616;2022-12-18T09:41:21;39.00;;;14.93;;
18510;SDS011;9384;48.044;11.616;2022-12-18T09:44:04;35.57;;;14.23;;
18510;SDS011;9384;48.044;11.616;2022-12-18T09:46:36;34.70;;;15.60;;
18510;SDS011;9384;48.044;11.616;2022-12-18T09:49:10;36.57;;;14.57;;
18510;SDS011;9384;48.044;11.616;2022-12-18T09:51:41;36.70;;;14.17;;
18510;SDS011;9384;48.044;11.616;2022-12-18T09:54:11;37.40;;;15.00;;
18510;SDS011;9384;48.044;11.616;2022-12-18T09:56:43;35.57;;;14.23;;
18510;SDS011;9384;48.044;11.616;2022-12-18T09:59:14;33.77;;;14.13;;
18510;SDS011;9384;48.044;11.616;2022-12-18T10:01:47;38.80;;;14.87;;
18510;SDS011;9384;48.044;11.616;2022-12-18T10:04:14;34.30;;;14.53;;
18510;SDS011;9384;48.044;11.616;2022-12-18T10:06:42;33.17;;;13.97;;
18510;SDS011;9384;48.044;11.616;2022-12-18T10:09:15;38.67;;;14.50;;
18510;SDS011;9384;48.044;11.616;2022-12-18T10:11:54;33.60;;;13.97;;
18510;SDS011;9384;48.044;11.616;2022-12-18T10:14:27;37.80;;;14.37;;
18510;SDS011;9384;48.044;11.616;2022-12-18T10:17:02;37.23;;;14.50;;
18510;SDS011;9384;48.044;11.616;2022-12-18T10:19:39;32.20;;;13.50;;
18510;SDS011;9384;48.044;11.616;2022-12-18T10:22:16;33.13;;;14.40;;
18510;SDS011;9384;48.044;11.616;2022-12-18T10:24:53;31.87;;;12.70;;
18510;SDS011;9384;48.044;11.616;2022-12-18T10:27:29;26.27;;;12.47;;
18510;SDS011;9384;48.044;11.616;2022-12-18T10:29:57;35.57;;;13.93;;
18510;SDS011;9384;48.044;11.616;2022-12-18T10:32:25;34.60;;;14.03;;
18510;SDS011;9384;48.044;11.616;2022-12-18T10:34:53;34.63;;;14.53;;
18510;SDS011;9384;48.044;11.616;2022-12-18T10:37:24;36.60;;;13.17;;
18510;SDS011;9384;48.044;11.616;2022-12-18T10:40:07;29.57;;;13.63;;
18510;SDS011;9384;48.044;11.616;2022-12-18T10:42:37;38.03;;;14.60;;
18510;SDS011;9384;48.044;11.616;2022-12-18T10:45:11;34.80;;;14.33;;
18510;SDS011;9384;48.044;11.616;2022-12-18T10:47:43;36.67;;;14.93;;
18510;SDS011;9384;48.044;11.616;2022-12-18T10:50:19;34.90;;;13.83;;
18510;SDS011;9384;48.044;11.616;2022-12-18T10:52:54;33.37;;;13.47;;
18510;SDS011;9384;48.044;11.616;2022-12-18T10:55:23;31.30;;;13.13;;
18510;SDS011;9384;48.044;11.616;2022-12-18T10:57:55;32.60;;;13.67;;
18510;SDS011;9384;48.044;11.616;2022-12-18T11:00:40;33.63;;;13.23;;
18510;SDS011;9384;48.044;11.616;2022-12-18T11:03:11;37.87;;;14.30;;
18510;SDS011;9384;48.044;11.616;2022-12-18T11:06:07;34.00;;;14.10;;
18510;SDS011;9384;48.044;11.616;2022-12-18T11:08:36;33.27;;;13.10;;
18510;SDS011;9384;48.044;11.616;2022-12-18T11:11:03;35.77;;;14.67;;
18510;SDS011;9384;48.044;11.616;2022-12-18T11:13:43;31.80;;;12.70;;
18510;SDS011;9384;48.044;11.616;2022-12-18T11:16:21;33.40;;;13.57;;
18510;SDS011;9384;48.044;11.616;2022-12-18T11:18:48;32.07;;;13.20;;
18510;SDS011;9384;48.044;11.616;2022-12-18T11:21:15;34.10;;;13.53;;
18510;SDS011;9384;48.044;11.616;2022-12-18T11:23:45;30.27;;;13.07;;
18510;SDS011;9384;48.044;11.616;2022-12-18T11:26:15;33.40;;;14.03;;
18510;SDS011;9384;48.044;11.616;2022-12-18T11:28:45;32.40;;;12.80;;
18510;SDS011;9384;48.044;11.616;2022-12-18T11:31:22;29.30;;;12.70;;
18510;SDS011;9384;48.044;11.616;2022-12-18T11:33:53;28.27;;;12.40;;
18510;SDS011;9384;48.044;11.616;2022-12-18T11:36:30;29.63;;;13.50;;
18510;SDS011;9384;48.044;11.616;2022-12-18T11:39:00;31.10;;;13.20;;
18510;SDS011;9384;48.044;11.616;2022-12-18T11:41:32;29.97;;;13.63;;
18510;SDS011;9384;48.044;11.616;2022-12-18T11:44:24;27.47;;;11.83;;
18510;SDS011;9384;48.044;11.616;2022-12-18T11:46:55;29.93;;;13.40;;
18510;SDS011;9384;48.044;11.616;2022-12-18T11:49:27;28.53;;;12.50;;
18510;SDS011;9384;48.044;11.616;2022-12-18T11:52:00;31.03;;;13.47;;
18510;SDS011;9384;48.044;11.616;2022-12-18T11:54:35;27.33;;;12.60;;
18510;SDS011;9384;48.044;11.616;2022-12-18T11:57:03;31.30;;;13.40;;
18510;SDS011;9384;48.044;11.616;2022-12-18T11:59:43;28.93;;;12.97;;
18510;SDS011;9384;48.044;11.616;2022-12-18T12:02:26;25.40;;;12.23;;
18510;SDS011;9384;48.044;11.616;2022-12-18T12:05:08;29.60;;;12.30;;
18510;SDS011;9384;48.044;11.616;2022-12-18T12:07:47;21.80;;;10.70;;
18510;SDS011;9384;48.044;11.616;2022-12-18T12:10:24;30.37;;;12.53;;
18510;SDS011;9384;48.044;11.616;2022-12-18T12:13:03;30.23;;;13.13;;
18510;SDS011;9384;48.044;11.616;2022-12-18T12:15:42;30.90;;;13.07;;
18510;SDS011;9384;48.044;11.616;2022-12-18T12:18:17;33.07;;;12.67;;
18510;SDS011;9384;48.044;11.616;2022-12-18T12:20:53;29.37;;;12.03;;
18510;SDS011;9384;48.044;11.616;2022-12-18T12:23:30;31.03;;;13.40;;
18510;SDS011;9384;48.044;11.616;2022-12-18T12:26:04;34.10;;;13.43;;
18510;SDS011;9384;48.044;11.616;2022-12-18T12:28:43;29.33;;;13.47;;
18510;SDS011;9384;48.044;11.616;2022-12-18T12:31:29;30.60;;;12.87;;
18510;SDS011;9384;48.044;11.616;2022-12-18T12:34:05;32.27;;;14.13;;
18510;SDS011;9384;48.044;11.616;2022-12-18T12:36:44;35.17;;;14.70;;
18510;SDS011;9384;48.044;11.616;2022-12-18T12:39:20;36.93;;;13.63;;
18510;SDS011;9384;48.044;11.616;2022-12-18T12:41:51;29.00;;;13.23;;
18510;SDS011;9384;48.044;11.616;2022-12-18T12:44:38;32.80;;;13.43;;
18510;SDS011;9384;48.044;11.616;2022-12-18T12:47:11;29.07;;;13.10;;
18510;SDS011;9384;48.044;11.616;2022-12-18T12:49:41;27.43;;;12.53;;
18510;SDS011;9384;48.044;11.616;2022-12-18T12:52:13;29.10;;;12.77;;
18510;SDS011;9384;48.044;11.616;2022-12-18T12:54:43;35.13;;;13.63;;
18510;SDS011;9384;48.044;11.616;2022-12-18T12:57:12;30.43;;;12.30;;
18510;SDS011;9384;48.044;11.616;2022-12-18T13:03:27;33.70;;;13.33;;
18510;SDS011;9384;48.044;11.616;2022-12-18T13:06:02;34.00;;;13.40;;
18510;SDS011;9384;48.044;11.616;2022-12-18T13:08:52;26.43;;;11.77;;
18510;SDS011;9384;48.044;11.616;2022-12-18T13:11:28;26.40;;;12.30;;
18510;SDS011;9384;48.044;11.616;2022-12-18T13:14:23;33.63;;;13.83;;
18510;SDS011;9384;48.044;11.616;2022-12-18T13:19:43;33.60;;;14.27;;
18510;SDS011;9384;48.044;11.616;2022-12-18T13:22:20;31.60;;;13.30;;
18510;SDS011;9384;48.044;11.616;2022-12-18T13:24:48;32.40;;;13.63;;
18510;SDS011;9384;48.044;11.616;2022-12-18T13:33:30;27.67;;;12.30;;
18510;SDS011;9384;48.044;11.616;2022-12-18T13:36:13;27.97;;;13.27;;
18510;SDS011;9384;48.044;11.616;2022-12-18T13:38:42;32.47;;;12.23;;
18510;SDS011;9384;48.044;11.616;2022-12-18T13:41:23;27.93;;;12.53;;
18510;SDS011;9384;48.044;11.616;2022-12-18T13:43:52;31.23;;;12.77;;
18510;SDS011;9384;48.044;11.616;2022-12-18T13:46:26;32.57;;;13.43;;
18510;SDS011;9384;48.044;11.616;2022-12-18T13:48:56;29.23;;;12.67;;
18510;SDS011;9384;48.044;11.616;2022-12-18T13:51:27;33.70;;;13.77;;
18510;SDS011;9384;48.044;11.616;2022-12-18T13:53:57;32.60;;;14.27;;
18510;SDS011;9384;48.044;11.616;2022-12-18T13:56:26;32.90;;;14.07;;
18510;SDS011;9384;48.044;11.616;2022-12-18T13:59:06;29.70;;;12.70;;
18510;SDS011;9384;48.044;11.616;2022-12-18T14:01:41;35.37;;;14.53;;
18510;SDS011;9384;48.044;11.616;2022-12-18T14:04:10;32.77;;;12.37;;
18510;SDS011;9384;48.044;11.616;2022-12-18T14:06:39;34.20;;;13.03;;
18510;SDS011;9384;48.044;11.616;2022-12-18T14:09:10;32.03;;;13.57;;
18510;SDS011;9384;48.044;11.616;2022-12-18T14:11:40;29.97;;;13.70;;
18510;SDS011;9384;48.044;11.616;2022-12-18T14:14:13;30.50;;;13.67;;
18510;SDS011;9384;48.044;11.616;2022-12-18T14:16:41;38.00;;;15.07;;
18510;SDS011;9384;48.044;11.616;2022-12-18T14:19:08;35.33;;;13.80;;
18510;SDS011;9384;48.044;11.616;2022-12-18T14:21:41;33.10;;;13.37;;
18510;SDS011;9384;48.044;11.616;2022-12-18T14:24:13;32.73;;;13.77;;
18510;SDS011;9384;48.044;11.616;2022-12-18T14:26:41;33.97;;;13.97;;
18510;SDS011;9384;48.044;11.616;2022-12-18T14:29:19;36.80;;;14.47;;
18510;SDS011;9384;48.044;11.616;2022-12-18T14:34:31;33.60;;;14.73;;
18510;SDS011;9384;48.044;11.616;2022-12-18T14:36:59;33.10;;;14.53;;
18510;SDS011;9384;48.044;11.616;2022-12-18T14:39:26;38.87;;;16.03;;
18510;SDS011;9384;48.044;11.616;2022-12-18T14:41:53;36.33;;;14.53;;
18510;SDS011;9384;48.044;11.616;2022-12-18T14:44:20;31.33;;;13.33;;
18510;SDS011;9384;48.044;11.616;2022-12-18T14:46:47;32.53;;;14.60;;
18510;SDS011;9384;48.044;11.616;2022-12-18T14:49:18;36.73;;;13.97;;
18510;SDS011;9384;48.044;11.616;2022-12-18T14:51:49;33.73;;;14.60;;
18510;SDS011;9384;48.044;11.616;2022-12-18T14:54:19;31.50;;;12.40;;